CY-0001 weather

Lakatamia Airfield
Nicosia District, Cyprus

Public forecast

Using degrees Celsius for public forecast. Weather courtesy of forecast.io.

METAR (pilot weather report)

Closest report is Ercan International Airport, 9.1 nm (16.8 km) ENE. Retrieved 2019/06/19 10:20 UTC (14 minutes ago):

LCEN 191020Z 25004KT 9999 FEW025TCU SCT030 31/16 Q1008 NOSIG

TAF (pilot weather forecast)

Closest forecast is Ercan International Airport, 9.1 nm (16.8 km) ENE. Retrieved 2019/06/19 06:15 UTC (4 hours ago):

TAF TAF LCEN 190440Z 1906/2006 28015KT 9999 SCT025 PROB40 TEMPO 1911/1915 28015G25KT 5000 TSRA FEW020CB BKN025